Time;durP1;ratioP1;P1;durP2;ratioP2;P2;SDS_P1;SDS_P2;PMS_P1;PMS_P2;Temp;Humidity;BMP_temperature;BMP_pressure;BME280_temperature;BME280_humidity;BME280_pressure;Samples;Min_cycle;Max_cycle;Signal;HPM_P1;HPM_P2
2022/12/29 00:01:24;;;;;;;4.32;1.60;;;;;;;8.15;100.00;98310.28;5015398;28;20045;-59
2022/12/29 00:03:50;;;;;;;5.65;1.35;;;;;;;8.19;100.00;98305.31;5009865;28;20053;-58
2022/12/29 00:06:15;;;;;;;3.20;1.48;;;;;;;8.19;100.00;98303.44;5012117;28;20036;-58
2022/12/29 00:08:41;;;;;;;3.72;1.60;;;;;;;8.19;100.00;98291.84;5013385;28;20053;-58
2022/12/29 00:11:08;;;;;;;3.80;1.70;;;;;;;8.25;100.00;98294.56;5032083;28;20071;-58
2022/12/29 00:16:18;;;;;;;2.33;1.30;;;;;;;8.34;100.00;98287.97;5014904;28;20091;-58
2022/12/29 00:18:43;;;;;;;2.65;1.63;;;;;;;8.42;100.00;98278.91;5009922;28;20029;-58
2022/12/29 00:35:39;;;;;;;2.97;1.33;;;;;;;8.70;100.00;98262.59;5028720;28;20041;-59
2022/12/29 00:46:19;;;;;;;2.95;1.23;;;;;;;8.80;100.00;98256.78;5024351;28;20079;-59
2022/12/29 00:51:29;;;;;;;3.92;1.67;;;;;;;8.83;100.00;98255.53;5031009;28;20577;-59
2022/12/29 00:53:54;;;;;;;3.40;1.40;;;;;;;8.85;100.00;98273.16;5003527;28;20120;-59
2022/12/29 00:56:19;;;;;;;6.05;1.70;;;;;;;8.92;100.00;98263.22;5013238;28;20388;-59
2022/12/29 00:58:45;;;;;;;3.25;1.20;;;;;;;8.88;100.00;98267.41;5008567;28;20388;-59
2022/12/29 01:01:10;;;;;;;5.88;1.25;;;;;;;8.97;100.00;98260.75;5008218;28;20056;-59
2022/12/29 01:03:37;;;;;;;3.40;1.23;;;;;;;9.00;100.00;98265.72;5013589;28;20037;-59
2022/12/29 01:06:08;;;;;;;2.33;1.40;;;;;;;9.01;100.00;98266.53;5006162;28;20052;-58
2022/12/29 01:08:34;;;;;;;2.28;1.30;;;;;;;9.07;100.00;98275.72;5013809;28;20397;-59
2022/12/29 01:11:00;;;;;;;3.78;1.30;;;;;;;9.03;100.00;98269.06;5009050;28;20045;-59
2022/12/29 01:13:26;;;;;;;5.78;1.48;;;;;;;8.99;100.00;98284.84;5015193;28;20370;-59
2022/12/29 01:15:52;;;;;;;2.50;1.20;;;;;;;8.93;100.00;98275.69;5011088;28;20045;-60
2022/12/29 01:18:18;;;;;;;2.88;1.50;;;;;;;8.93;100.00;98278.41;5028717;28;20026;-63
2022/12/29 01:20:43;;;;;;;3.92;1.42;;;;;;;8.90;100.00;98278.78;5017689;28;20020;-60
2022/12/29 01:23:08;;;;;;;4.13;1.55;;;;;;;8.82;100.00;98278.16;5040825;28;20035;-67
2022/12/29 01:25:34;;;;;;;3.03;1.42;;;;;;;8.92;100.00;98295.59;5037959;28;20021;-59
2022/12/29 01:28:08;;;;;;;2.72;1.23;;;;;;;8.86;100.00;98295.59;5014530;28;20063;-59
2022/12/29 01:30:34;;;;;;;5.70;1.40;;;;;;;8.87;100.00;98298.09;5023907;28;20018;-59
2022/12/29 01:33:00;;;;;;;5.90;1.50;;;;;;;8.97;100.00;98293.13;5014246;28;20018;-59
2022/12/29 01:35:26;;;;;;;3.42;1.27;;;;;;;8.97;100.00;98290.44;4998478;28;20029;-61
2022/12/29 01:37:52;;;;;;;5.05;1.67;;;;;;;9.00;100.00;98295.41;4998743;28;20030;-59
2022/12/29 01:40:17;;;;;;;5.65;1.38;;;;;;;8.95;100.00;98294.38;5009102;28;20480;-61
2022/12/29 01:42:42;;;;;;;2.28;1.17;;;;;;;8.91;100.00;98287.72;5024089;28;20034;-59
2022/12/29 01:45:13;;;;;;;3.15;1.20;;;;;;;8.85;100.00;98289.34;5021912;28;20021;-60
2022/12/29 01:47:44;;;;;;;4.13;1.20;;;;;;;8.87;100.00;98292.69;5013151;28;20018;-60
2022/12/29 01:50:18;;;;;;;3.60;1.40;;;;;;;8.77;100.00;98292.25;5011059;28;20017;-60
2022/12/29 01:52:58;;;;;;;3.53;1.40;;;;;;;8.73;100.00;98294.53;5015641;28;20108;-60
2022/12/29 01:55:26;;;;;;;4.30;1.27;;;;;;;8.70;100.00;98300.34;5014892;28;20101;-60
2022/12/29 01:57:56;;;;;;;4.00;1.38;;;;;;;8.67;100.00;98291.81;5026369;28;20084;-60
2022/12/29 02:00:21;;;;;;;5.90;1.35;;;;;;;8.63;100.00;98298.66;5014417;28;20074;-60
2022/12/29 02:02:52;;;;;;;3.65;1.52;;;;;;;8.62;100.00;98288.88;5015229;28;20029;-59
2022/12/29 02:05:44;;;;;;;3.33;1.67;;;;;;;8.61;100.00;98274.59;5012163;28;20022;-60
2022/12/29 02:08:11;;;;;;;4.10;1.50;;;;;;;8.64;100.00;98281.44;5005406;28;20045;-60
2022/12/29 02:10:37;;;;;;;4.88;1.13;;;;;;;8.76;100.00;98280.63;5024925;28;20030;-60
2022/12/29 02:13:03;;;;;;;4.43;1.10;;;;;;;8.83;100.00;98259.09;5009184;28;20029;-60
2022/12/29 02:15:56;;;;;;;2.15;1.10;;;;;;;8.97;100.00;98262.63;5019201;28;20060;-60
2022/12/29 02:18:31;;;;;;;3.13;1.00;;;;;;;8.99;100.00;98272.16;5009645;28;20055;-60
2022/12/29 02:21:31;;;;;;;3.58;1.30;;;;;;;9.03;100.00;98266.34;5017157;28;20028;-60
2022/12/29 02:24:23;;;;;;;1.45;0.95;;;;;;;9.08;100.00;98263.88;5034048;28;20029;-61
2022/12/29 02:27:15;;;;;;;3.47;1.05;;;;;;;9.11;100.00;98271.53;4994154;28;20113;-60
2022/12/29 02:30:07;;;;;;;2.42;1.13;;;;;;;9.09;100.00;98265.50;4992373;28;20061;-60
2022/12/29 02:32:56;;;;;;;3.55;0.90;;;;;;;9.09;100.00;98269.06;5006769;28;20423;-60
2022/12/29 02:36:07;;;;;;;3.88;1.20;;;;;;;9.10;100.00;98264.50;5015454;28;20028;-58
2022/12/29 02:39:00;;;;;;;3.00;1.33;;;;;;;9.08;100.00;98258.47;5027151;28;20362;-58
2022/12/29 02:41:33;;;;;;;2.28;1.10;;;;;;;9.09;100.00;98257.41;5003152;28;20021;-58
2022/12/29 02:44:25;;;;;;;3.88;1.35;;;;;;;9.05;100.00;98250.78;5026613;28;20115;-58
2022/12/29 02:47:09;;;;;;;3.17;1.25;;;;;;;9.04;100.00;98241.88;5011760;28;20021;-59
2022/12/29 02:49:42;;;;;;;4.95;1.15;;;;;;;9.08;100.00;98251.19;5014487;28;20022;-58
2022/12/29 02:52:16;;;;;;;3.60;1.35;;;;;;;9.09;100.00;98247.47;5019727;28;20025;-58
2022/12/29 02:54:42;;;;;;;2.20;1.00;;;;;;;9.11;100.00;98239.97;5023711;28;20029;-58
2022/12/29 02:57:22;;;;;;;2.63;1.10;;;;;;;9.14;100.00;98238.75;5025159;28;20112;-58
2022/12/29 02:59:54;;;;;;;6.50;1.10;;;;;;;9.16;100.00;98242.88;5026543;28;20127;-58
2022/12/29 03:02:50;;;;;;;3.83;1.40;;;;;;;9.10;100.00;98249.13;5014303;28;20091;-58
2022/12/29 03:05:27;;;;;;;5.80;1.25;;;;;;;9.08;100.00;98248.50;5016219;28;20033;-58
2022/12/29 03:08:06;;;;;;;3.90;1.00;;;;;;;9.07;100.00;98237.94;5032959;28;20072;-58
2022/12/29 03:10:53;;;;;;;1.92;1.17;;;;;;;9.02;100.00;98246.66;5014531;28;20022;-58
2022/12/29 03:16:49;;;;;;;2.28;0.88;;;;;;;9.00;100.00;98232.53;5034899;28;20078;-59
2022/12/29 03:19:27;;;;;;;3.00;1.13;;;;;;;9.03;100.00;98237.50;5014574;28;20040;-59
2022/12/29 03:24:57;;;;;;;2.72;0.80;;;;;;;9.09;100.00;98219.63;5027008;28;20048;-59
2022/12/29 03:27:28;;;;;;;2.67;0.93;;;;;;;9.12;100.00;98213.84;5011568;28;20080;-59
2022/12/29 03:30:01;;;;;;;8.85;1.95;;;;;;;9.26;100.00;98220.06;5011285;28;20025;-59
2022/12/29 03:32:38;;;;;;;3.72;1.10;;;;;;;9.28;100.00;98199.91;5023934;28;20036;-59
2022/12/29 03:35:06;;;;;;;5.78;1.00;;;;;;;9.46;100.00;98206.53;5015227;28;20566;-59
2022/12/29 03:37:39;;;;;;;5.05;0.77;;;;;;;9.56;100.00;98205.06;5015892;28;20029;-59
2022/12/29 03:40:05;;;;;;;4.45;0.90;;;;;;;9.71;100.00;98210.19;5011666;28;20040;-59
2022/12/29 03:42:34;;;;;;;3.83;0.98;;;;;;;9.79;100.00;98211.84;5006200;28;20033;-59
2022/12/29 03:44:59;;;;;;;3.85;1.30;;;;;;;9.85;100.00;98206.44;5011311;28;20405;-59
2022/12/29 03:47:25;;;;;;;3.92;1.10;;;;;;;9.95;100.00;98205.13;4996644;28;20030;-59
2022/12/29 03:49:50;;;;;;;4.80;0.93;;;;;;;9.85;100.00;98203.72;5002956;28;20021;-59
2022/12/29 03:52:16;;;;;;;1.90;0.68;;;;;;;9.79;100.00;98203.75;5027583;28;20449;-59
2022/12/29 03:54:41;;;;;;;2.17;0.70;;;;;;;9.72;100.00;98206.47;5004535;28;20116;-59
2022/12/29 03:57:08;;;;;;;3.88;1.17;;;;;;;9.76;100.00;98210.41;5007244;28;20041;-59
2022/12/29 03:59:33;;;;;;;3.20;0.80;;;;;;;9.87;100.00;98211.59;5014161;28;20022;-59
2022/12/29 04:01:59;;;;;;;3.63;0.90;;;;;;;9.86;100.00;98205.38;5013227;28;20040;-59
2022/12/29 04:04:24;;;;;;;2.78;0.75;;;;;;;10.05;100.00;98208.22;5001256;28;20030;-59
2022/12/29 04:06:49;;;;;;;5.38;1.10;;;;;;;10.14;100.00;98206.09;5019796;28;20029;-59
2022/12/29 04:09:15;;;;;;;1.42;0.70;;;;;;;10.10;100.00;98211.94;5027360;28;20064;-59
2022/12/29 04:11:40;;;;;;;1.98;0.80;;;;;;;10.06;100.00;98207.16;5011918;28;20397;-59
2022/12/29 04:14:05;;;;;;;1.50;0.80;;;;;;;10.20;100.00;98216.88;5024985;28;20497;-59
2022/12/29 04:16:31;;;;;;;2.40;0.85;;;;;;;10.22;100.00;98217.50;5023318;28;20108;-59
2022/12/29 04:18:56;;;;;;;1.50;0.77;;;;;;;10.22;100.00;98224.78;5011205;28;20029;-60
2022/12/29 04:21:22;;;;;;;2.00;0.60;;;;;;;10.20;100.00;98218.75;4998314;28;20064;-59
2022/12/29 04:23:48;;;;;;;2.50;0.90;;;;;;;10.21;100.00;98221.22;5002518;28;20036;-59
2022/12/29 04:26:14;;;;;;;7.18;1.00;;;;;;;10.24;100.00;98223.53;5011025;28;20389;-59
2022/12/29 04:28:39;;;;;;;4.93;1.00;;;;;;;10.23;100.00;98221.84;5027147;28;20059;-59
2022/12/29 04:31:04;;;;;;;3.47;0.80;;;;;;;10.35;100.00;98224.75;5015455;28;20024;-59
2022/12/29 04:33:30;;;;;;;2.95;0.63;;;;;;;10.39;100.00;98227.84;5005248;28;20421;-59
2022/12/29 04:35:55;;;;;;;1.23;0.60;;;;;;;10.46;100.00;98217.81;5004852;28;20522;-59
2022/12/29 04:38:22;;;;;;;3.08;0.80;;;;;;;10.49;100.00;98204.69;5019789;28;20029;-59
2022/12/29 04:40:48;;;;;;;3.15;1.20;;;;;;;10.57;100.00;98200.91;5034638;28;20021;-59
2022/12/29 04:43:14;;;;;;;1.95;0.70;;;;;;;10.58;100.00;98196.31;5005156;28;20080;-59
2022/12/29 04:45:44;;;;;;;3.58;0.73;;;;;;;10.60;100.00;98191.50;5025863;28;20068;-59
2022/12/29 04:48:09;;;;;;;5.15;0.68;;;;;;;10.60;100.00;98173.41;5009919;28;20037;-59
2022/12/29 04:50:34;;;;;;;1.95;0.70;;;;;;;10.66;100.00;98188.78;5025232;28;20029;-59
2022/12/29 04:53:00;;;;;;;1.25;0.57;;;;;;;10.70;100.00;98173.75;5030484;28;20118;-59
2022/12/29 04:57:55;;;;;;;4.00;0.60;;;;;;;10.79;100.00;98181.59;5043084;28;20049;-63
2022/12/29 05:00:20;;;;;;;2.00;0.80;;;;;;;10.79;100.00;98182.41;5031353;28;20503;-63
2022/12/29 05:02:46;;;;;;;7.13;0.80;;;;;;;10.79;100.00;98182.41;5035896;28;20036;-63
2022/12/29 05:05:12;;;;;;;2.38;0.80;;;;;;;10.84;100.00;98171.75;5046453;28;20364;-63
2022/12/29 05:07:37;;;;;;;2.53;0.90;;;;;;;10.85;100.00;98183.44;5054605;28;20036;-63
2022/12/29 05:10:04;;;;;;;2.47;0.70;;;;;;;10.89;100.00;98185.47;5023780;28;20018;-62
2022/12/29 05:12:31;;;;;;;2.25;0.60;;;;;;;10.83;100.00;98166.59;5018288;28;20102;-63
2022/12/29 05:14:56;;;;;;;2.83;0.70;;;;;;;10.82;100.00;98171.16;5031259;28;20418;-63
2022/12/29 05:17:21;;;;;;;1.13;0.40;;;;;;;10.82;100.00;98175.72;5028577;28;20017;-63
2022/12/29 05:19:47;;;;;;;2.83;0.95;;;;;;;10.74;100.00;98169.56;5050625;28;20510;-63
2022/12/29 05:22:12;;;;;;;7.95;0.82;;;;;;;10.59;100.00;98181.75;5043799;28;20036;-63
2022/12/29 05:24:38;;;;;;;3.10;0.77;;;;;;;10.59;100.00;98168.22;5018634;28;20021;-63
2022/12/29 05:27:03;;;;;;;7.30;0.93;;;;;;;10.53;100.00;98176.16;5028526;28;20025;-63
2022/12/29 05:29:28;;;;;;;3.13;0.90;;;;;;;10.50;100.00;98183.88;5044901;28;20120;-63
2022/12/29 05:31:54;;;;;;;2.58;0.80;;;;;;;10.56;100.00;98184.88;5029837;28;20098;-63
2022/12/29 05:34:19;;;;;;;0.95;0.60;;;;;;;10.56;100.00;98191.13;5040054;28;20087;-65
2022/12/29 05:36:45;;;;;;;2.88;0.90;;;;;;;10.55;100.00;98192.16;5027748;28;20134;-63
2022/12/29 05:39:10;;;;;;;3.05;0.90;;;;;;;10.61;100.00;98185.03;5022216;28;20118;-63
2022/12/29 05:41:36;;;;;;;0.80;0.60;;;;;;;10.75;100.00;98192.03;5045591;28;20036;-63
2022/12/29 05:44:01;;;;;;;2.15;0.70;;;;;;;10.73;100.00;98196.84;5034574;28;20067;-63
2022/12/29 05:46:27;;;;;;;1.90;0.95;;;;;;;10.83;100.00;98193.66;5043426;28;20440;-63
2022/12/29 05:48:52;;;;;;;1.75;0.57;;;;;;;10.90;100.00;98205.25;5034935;28;20032;-63
2022/12/29 05:51:18;;;;;;;1.73;0.80;;;;;;;10.93;100.00;98200.22;5035983;28;20024;-63
2022/12/29 05:53:43;;;;;;;3.05;0.88;;;;;;;11.04;100.00;98190.56;5034708;28;20052;-63
2022/12/29 05:56:09;;;;;;;1.45;0.88;;;;;;;11.02;100.00;98184.53;5036591;28;20369;-62
2022/12/29 05:58:34;;;;;;;1.75;0.90;;;;;;;11.00;100.00;98186.63;5028428;28;20032;-63
2022/12/29 06:01:00;;;;;;;2.08;0.77;;;;;;;10.95;100.00;98192.72;5021200;28;20472;-62
2022/12/29 06:03:26;;;;;;;2.30;1.10;;;;;;;10.97;100.00;98185.19;5048843;28;20033;-63
2022/12/29 06:05:51;;;;;;;2.50;0.90;;;;;;;10.99;100.00;98181.44;5035890;28;20461;-63
2022/12/29 06:08:16;;;;;;;2.42;0.90;;;;;;;10.97;100.00;98178.94;5036402;28;20079;-63
2022/12/29 06:10:42;;;;;;;4.25;1.10;;;;;;;11.01;100.00;98182.88;5025253;28;20048;-63
2022/12/29 06:13:07;;;;;;;2.78;1.10;;;;;;;11.03;100.00;98190.75;5037687;28;20106;-67
2022/12/29 06:15:33;;;;;;;3.03;0.80;;;;;;;11.03;100.00;98175.38;5042334;28;20116;-67
2022/12/29 06:17:58;;;;;;;4.88;1.17;;;;;;;11.06;100.00;98187.63;5032330;28;20033;-67
2022/12/29 06:20:24;;;;;;;4.13;1.00;;;;;;;11.03;100.00;98188.91;5031833;28;20420;-67
2022/12/29 06:22:49;;;;;;;1.75;0.80;;;;;;;10.95;100.00;98190.00;5020410;28;20031;-67
2022/12/29 06:25:15;;;;;;;4.25;1.10;;;;;;;10.94;100.00;98184.81;5035616;28;20025;-67
2022/12/29 06:27:41;;;;;;;3.28;1.05;;;;;;;10.91;100.00;98182.53;5043676;28;20025;-67
2022/12/29 06:30:08;;;;;;;3.70;1.00;;;;;;;10.88;100.00;98183.81;5048234;28;20021;-67
2022/12/29 06:32:34;;;;;;;1.33;0.98;;;;;;;10.88;100.00;98191.09;5031619;28;20021;-67
2022/12/29 06:34:59;;;;;;;4.50;1.02;;;;;;;10.85;100.00;98189.66;5020861;28;20040;-66
2022/12/29 06:37:25;;;;;;;3.20;1.13;;;;;;;10.83;100.00;98188.22;5033163;28;20024;-66
2022/12/29 06:39:50;;;;;;;2.25;0.80;;;;;;;10.87;100.00;98178.59;5030904;28;20104;-67
2022/12/29 06:42:15;;;;;;;5.00;1.10;;;;;;;10.90;100.00;98178.19;5029496;28;20475;-67
2022/12/29 06:45:00;;;;;;;1.00;0.90;;;;;;;10.94;100.00;98177.50;5040839;28;20063;-67
2022/12/29 06:47:26;;;;;;;2.47;0.95;;;;;;;10.93;100.00;98180.44;5028552;28;20021;-66
2022/12/29 06:49:52;;;;;;;2.00;0.93;;;;;;;10.95;100.00;98181.03;5028386;28;20036;-67
2022/12/29 06:52:17;;;;;;;3.78;0.98;;;;;;;11.01;100.00;98187.47;5035198;28;20116;-67
2022/12/29 06:54:43;;;;;;;4.15;1.00;;;;;;;10.98;100.00;98188.75;5032453;28;20108;-67
2022/12/29 06:57:08;;;;;;;5.97;1.13;;;;;;;10.95;100.00;98179.19;5033883;28;20111;-67
2022/12/29 06:59:33;;;;;;;2.78;0.93;;;;;;;10.90;100.00;98183.59;5042784;28;20028;-67
2022/12/29 07:02:00;;;;;;;1.23;0.90;;;;;;;10.86;100.00;98182.38;5028522;28;20032;-66
2022/12/29 07:04:25;;;;;;;1.83;1.00;;;;;;;10.84;100.00;98177.16;5026643;28;20541;-67
2022/12/29 07:06:51;;;;;;;2.33;0.70;;;;;;;10.79;100.00;98173.47;5023034;28;20033;-67
2022/12/29 07:09:16;;;;;;;2.95;0.90;;;;;;;10.72;100.00;98179.78;5032538;28;20079;-67
2022/12/29 07:11:42;;;;;;;1.73;1.00;;;;;;;10.68;100.00;98164.19;5033940;28;20025;-67
2022/12/29 07:14:08;;;;;;;4.03;1.13;;;;;;;10.67;100.00;98170.66;5042666;28;20052;-67
2022/12/29 07:16:34;;;;;;;3.72;1.10;;;;;;;10.64;100.00;98171.09;5029320;28;20025;-67
2022/12/29 07:18:59;;;;;;;4.93;1.20;;;;;;;10.66;100.00;98172.53;5035006;28;20029;-68
2022/12/29 07:21:25;;;;;;;2.95;1.13;;;;;;;10.67;100.00;98171.47;5041976;28;20029;-67
2022/12/29 07:23:50;;;;;;;2.92;1.20;;;;;;;10.63;100.00;98178.38;5043674;28;20400;-68
2022/12/29 07:26:17;;;;;;;2.20;1.20;;;;;;;10.68;100.00;98170.41;5046303;28;20469;-68
2022/12/29 07:28:43;;;;;;;3.67;1.30;;;;;;;10.71;100.00;98172.69;5036529;28;20040;-67
2022/12/29 07:31:18;;;;;;;3.65;1.20;;;;;;;10.67;100.00;98182.31;5026409;28;20028;-67
2022/12/29 07:33:44;;;;;;;3.88;1.15;;;;;;;10.59;100.00;98177.16;5030944;28;20025;-65
2022/12/29 07:36:11;;;;;;;2.75;1.17;;;;;;;10.63;100.00;98185.66;5033360;28;20052;-65
2022/12/29 07:38:37;;;;;;;2.97;1.10;;;;;;;10.57;100.00;98184.66;5027573;28;20090;-64
2022/12/29 07:41:03;;;;;;;5.65;1.35;;;;;;;10.62;100.00;98192.94;5051237;28;20029;-65
2022/12/29 07:43:29;;;;;;;2.17;1.40;;;;;;;10.54;100.00;98179.69;5042761;28;20050;-65
2022/12/29 07:45:54;;;;;;;6.13;1.60;;;;;;;10.63;100.00;98189.19;5023734;28;20028;-65
2022/12/29 07:48:19;;;;;;;3.72;1.42;;;;;;;10.60;100.00;98186.94;5035869;28;20025;-65
2022/12/29 07:50:45;;;;;;;3.15;1.38;;;;;;;10.60;100.00;98195.03;5019747;28;20074;-65
2022/12/29 07:53:11;;;;;;;2.90;1.38;;;;;;;10.56;100.00;98201.94;5035148;28;20560;-65
2022/12/29 07:55:37;;;;;;;3.40;1.10;;;;;;;10.50;100.00;98200.91;5031844;28;20037;-66
2022/12/29 07:58:03;;;;;;;3.78;1.52;;;;;;;10.55;100.00;98210.28;5025769;28;20370;-66
2022/12/29 08:00:28;;;;;;;2.13;1.00;;;;;;;10.55;100.00;98202.97;5028624;28;20114;-65
2022/12/29 08:02:54;;;;;;;7.57;1.25;;;;;;;10.53;100.00;98200.50;5033660;28;20115;-65
2022/12/29 08:05:20;;;;;;;4.35;1.08;;;;;;;10.48;100.00;98213.03;5028972;28;20187;-66
2022/12/29 08:07:46;;;;;;;3.20;1.15;;;;;;;10.49;100.00;98222.78;5038818;28;20035;-65
2022/12/29 08:10:13;;;;;;;2.53;1.50;;;;;;;10.54;100.00;98214.84;5031870;28;20025;-65
2022/12/29 08:12:39;;;;;;;3.95;1.15;;;;;;;10.59;100.00;98222.31;5021719;28;20032;-65
2022/12/29 08:15:06;;;;;;;3.00;1.38;;;;;;;10.73;100.00;98221.19;5040177;28;20469;-65
2022/12/29 08:17:32;;;;;;;3.05;1.10;;;;;;;10.78;100.00;98213.22;5040036;28;20021;-65
2022/12/29 08:19:58;;;;;;;1.75;0.80;;;;;;;10.71;100.00;98215.97;5030701;28;20055;-65
2022/12/29 08:22:23;;;;;;;2.95;1.00;;;;;;;10.70;100.00;98219.75;5043130;28;20112;-65
2022/12/29 08:24:49;;;;;;;2.20;0.95;;;;;;;10.70;100.00;98214.31;5046964;28;20035;-65
2022/12/29 08:27:14;;;;;;;3.10;1.10;;;;;;;10.73;100.00;98207.66;5036484;28;20029;-62
2022/12/29 08:29:40;;;;;;;3.03;1.20;;;;;;;10.74;100.00;98223.69;5021913;28;20029;-62
2022/12/29 08:32:06;;;;;;;4.82;1.35;;;;;;;10.75;100.00;98227.22;5049084;28;20033;-62
2022/12/29 08:34:32;;;;;;;4.50;1.48;;;;;;;10.76;100.00;98223.44;5056447;28;20102;-62
2022/12/29 08:36:57;;;;;;;3.75;1.80;;;;;;;10.76;100.00;98220.75;5055179;28;20060;-62
2022/12/29 08:39:23;;;;;;;4.85;1.20;;;;;;;10.76;100.00;98207.22;5038074;28;20115;-62
2022/12/29 08:41:48;;;;;;;3.40;1.50;;;;;;;10.79;100.00;98219.47;5039459;28;20067;-63
2022/12/29 08:44:14;;;;;;;6.90;1.70;;;;;;;10.86;100.00;98220.25;5045227;28;20056;-62
2022/12/29 08:46:39;;;;;;;3.60;1.45;;;;;;;10.89;100.00;98217.09;5037111;28;20040;-62
2022/12/29 08:49:05;;;;;;;7.20;1.40;;;;;;;10.89;100.00;98222.53;5047194;28;20108;-62
2022/12/29 08:51:30;;;;;;;4.13;1.58;;;;;;;10.93;100.00;98218.34;5051232;28;20060;-63
2022/12/29 08:53:56;;;;;;;4.10;1.63;;;;;;;10.97;100.00;98219.53;5049818;28;20476;-62
2022/12/29 08:56:23;;;;;;;5.55;1.08;;;;;;;10.99;100.00;98214.75;5038906;28;20048;-62
2022/12/29 08:58:49;;;;;;;1.63;0.90;;;;;;;11.01;100.00;98237.00;5028932;28;20492;-62
2022/12/29 09:01:15;;;;;;;3.03;1.00;;;;;;;11.01;100.00;98234.31;5053007;28;20060;-62
2022/12/29 09:03:40;;;;;;;4.50;1.08;;;;;;;11.02;100.00;98229.72;5050669;28;20060;-62
2022/12/29 09:06:06;;;;;;;2.10;0.95;;;;;;;11.07;100.00;98238.00;5037893;28;20021;-62
2022/12/29 09:08:31;;;;;;;4.75;1.08;;;;;;;11.11;100.00;98236.53;5037381;28;20025;-62
2022/12/29 09:11:07;;;;;;;2.00;1.08;;;;;;;11.14;100.00;98242.31;5037370;28;20016;-62
2022/12/29 09:13:32;;;;;;;2.33;1.08;;;;;;;11.22;100.00;98240.41;5027188;28;20029;-62
2022/12/29 09:15:59;;;;;;;5.80;1.25;;;;;;;11.23;100.00;98237.44;5039518;28;20028;-62
2022/12/29 09:18:24;;;;;;;4.70;1.20;;;;;;;11.23;100.00;98250.16;5051882;28;20029;-62
2022/12/29 09:20:56;;;;;;;2.47;0.90;;;;;;;11.25;100.00;98253.50;5038130;28;20368;-62
2022/12/29 09:23:21;;;;;;;2.45;1.02;;;;;;;11.26;100.00;98260.53;5048748;28;20032;-61
2022/12/29 09:25:47;;;;;;;5.28;1.30;;;;;;;11.25;100.00;98258.91;5044377;28;20021;-62
2022/12/29 09:28:12;;;;;;;3.88;1.35;;;;;;;11.29;100.00;98254.69;5048523;28;20179;-60
2022/12/29 09:30:39;;;;;;;5.25;1.48;;;;;;;11.30;100.00;98264.47;5040465;28;20025;-62
2022/12/29 09:33:04;;;;;;;3.65;0.98;;;;;;;11.32;100.00;98259.69;5041408;28;20127;-61
2022/12/29 09:35:30;;;;;;;2.67;1.02;;;;;;;11.38;100.00;98248.78;5037941;28;20544;-63
2022/12/29 09:37:55;;;;;;;2.97;1.08;;;;;;;11.45;100.00;98251.44;5060547;28;20076;-61
2022/12/29 09:40:32;;;;;;;3.15;1.10;;;;;;;11.41;100.00;98251.03;5046671;28;20108;-61
2022/12/29 09:43:19;;;;;;;2.88;1.25;;;;;;;11.43;100.00;98247.28;5031646;28;20373;-62
2022/12/29 09:45:52;;;;;;;2.47;0.80;;;;;;;11.47;100.00;98248.50;5029041;28;20029;-60
2022/12/29 09:48:22;;;;;;;3.58;0.98;;;;;;;11.50;100.00;98257.03;5034533;28;20025;-61
2022/12/29 09:50:52;;;;;;;2.58;1.38;;;;;;;11.53;100.00;98243.03;5032583;28;20066;-61
2022/12/29 09:53:25;;;;;;;1.55;1.00;;;;;;;11.57;100.00;98244.22;5039186;28;20041;-61
2022/12/29 09:55:54;;;;;;;3.08;1.27;;;;;;;11.69;100.00;98240.78;5036524;28;20032;-61
2022/12/29 09:58:26;;;;;;;2.55;1.20;;;;;;;11.85;100.00;98234.78;5035443;28;20039;-64
2022/12/29 10:01:19;;;;;;;3.85;1.35;;;;;;;11.80;100.00;98240.84;5035146;28;20547;-57
2022/12/29 10:03:48;;;;;;;3.63;1.10;;;;;;;11.65;100.00;98236.84;5019972;28;20047;-64
2022/12/29 10:06:31;;;;;;;8.93;1.42;;;;;;;11.58;100.00;98237.75;5044535;28;20072;-63
2022/12/29 10:09:16;;;;;;;3.35;1.30;;;;;;;11.59;100.00;98231.28;5049794;28;20045;-64
2022/12/29 10:12:06;;;;;;;3.28;1.52;;;;;;;11.61;100.00;98239.19;5024689;28;20369;-64
2022/12/29 10:15:02;;;;;;;5.93;1.67;;;;;;;11.74;100.00;98239.06;5029204;28;20029;-65
2022/12/29 10:17:30;;;;;;;3.80;1.50;;;;;;;11.79;100.00;98243.81;5024553;28;20025;-65
2022/12/29 10:20:20;;;;;;;3.53;1.20;;;;;;;11.83;100.00;98234.16;5037245;22;21641;-76
2022/12/29 10:23:17;;;;;;;3.35;1.45;;;;;;;12.10;100.00;98236.59;4991771;28;20041;-76
2022/12/29 10:25:44;;;;;;;5.60;1.17;;;;;;;12.34;100.00;98237.53;4976590;28;20034;-80
2022/12/29 10:28:20;;;;;;;3.38;1.42;;;;;;;12.49;100.00;98244.22;4994611;28;20022;-79
2022/12/29 10:30:48;;;;;;;2.60;0.70;;;;;;;12.75;100.00;98253.06;5002053;28;20203;-76
2022/12/29 10:33:31;;;;;;;3.65;1.00;;;;;;;12.83;100.00;98238.31;4987595;28;20038;-76
2022/12/29 10:35:57;;;;;;;2.15;0.90;;;;;;;12.84;100.00;98231.84;4997727;28;20023;-76
2022/12/29 10:38:44;;;;;;;4.45;0.60;;;;;;;12.92;100.00;98243.19;4993853;28;20050;-75
2022/12/29 10:41:32;;;;;;;2.33;0.68;;;;;;;13.07;100.00;98241.91;4996237;28;20074;-75
2022/12/29 10:44:00;;;;;;;3.38;0.60;;;;;;;12.99;100.00;98226.78;4974540;28;20040;-74
2022/12/29 10:46:30;;;;;;;1.23;0.70;;;;;;;13.10;100.00;98247.72;4977624;28;20941;-75
2022/12/29 10:48:56;;;;;;;3.35;0.70;;;;;;;13.12;100.00;98240.16;4986923;28;20636;-76
2022/12/29 10:51:26;;;;;;;1.92;0.70;;;;;;;12.93;100.00;98220.41;4994855;28;20026;-75
2022/12/29 10:53:59;;;;;;;2.38;0.77;;;;;;;12.91;100.00;98219.81;4992466;28;20030;-74
2022/12/29 10:56:27;;;;;;;1.00;0.50;;;;;;;12.93;100.00;98236.69;5076306;22;20120;-65
2022/12/29 10:58:57;;;;;;;1.63;0.80;;;;;;;12.84;100.00;98238.09;5053323;28;20039;-65
2022/12/29 11:01:31;;;;;;;3.28;1.10;;;;;;;12.77;100.00;98253.66;5041646;28;20020;-65
2022/12/29 11:04:05;;;;;;;1.95;0.75;;;;;;;12.87;100.00;98240.34;5036116;28;20048;-67
2022/12/29 11:06:31;;;;;;;3.00;0.68;;;;;;;13.07;100.00;98237.34;5038611;28;20165;-65
2022/12/29 11:09:01;;;;;;;0.75;0.60;;;;;;;13.31;100.00;98248.28;5022871;28;20029;-65
2022/12/29 11:11:33;;;;;;;1.73;0.60;;;;;;;13.45;100.00;98240.72;5031068;28;20021;-65
2022/12/29 11:14:08;;;;;;;1.90;0.80;;;;;;;13.44;100.00;98244.47;5035291;28;20120;-67
2022/12/29 11:16:34;;;;;;;0.70;0.50;;;;;;;13.44;100.00;98244.47;5029496;28;20047;-66
2022/12/29 11:19:01;;;;;;;2.83;0.70;;;;;;;13.50;100.00;98246.28;5028321;28;20036;-65
2022/12/29 11:21:34;;;;;;;1.67;0.50;;;;;;;13.49;100.00;98240.00;5028134;28;20423;-66
2022/12/29 11:24:05;;;;;;;2.75;0.38;;;;;;;13.41;100.00;98236.81;5020663;28;20135;-65
2022/12/29 11:26:32;;;;;;;2.25;0.75;;;;;;;13.35;100.00;98250.25;5047491;28;20028;-65
2022/12/29 11:29:21;;;;;;;2.15;0.82;;;;;;;13.25;100.00;98249.97;5028782;28;20432;-61
2022/12/29 11:31:51;;;;;;;;;;;;;;;13.21;100.00;98243.38;5023141;28;20029;-62
2022/12/29 11:34:23;;;;;;;2.10;0.57;;;;;;;13.24;100.00;98250.22;5030510;28;20075;-62
2022/12/29 11:36:50;;;;;;;2.97;0.60;;;;;;;13.23;100.00;98256.72;5023882;28;20028;-62
2022/12/29 11:39:27;;;;;;;3.08;0.70;;;;;;;13.24;100.00;98252.94;5027692;28;20040;-67
2022/12/29 11:41:53;;;;;;;1.38;0.70;;;;;;;13.15;100.00;98256.00;5030572;28;21562;-67
2022/12/29 11:44:19;;;;;;;4.03;0.60;;;;;;;12.95;100.00;98247.34;5029914;28;20112;-66
2022/12/29 11:46:49;;;;;;;1.63;0.70;;;;;;;13.04;100.00;98242.38;5029283;28;20119;-67
2022/12/29 11:49:21;;;;;;;1.50;0.70;;;;;;;13.06;100.00;98243.00;5029820;28;20032;-66
2022/12/29 11:51:49;;;;;;;2.08;0.60;;;;;;;13.04;100.00;98242.38;5025953;28;20093;-67
2022/12/29 11:54:31;;;;;;;5.78;0.57;;;;;;;13.05;100.00;98247.59;5012192;28;20026;-66
2022/12/29 11:56:58;;;;;;;1.85;0.70;;;;;;;12.94;100.00;98243.81;5028435;28;20059;-66
2022/12/29 11:59:26;;;;;;;3.00;0.65;;;;;;;12.81;100.00;98243.16;5027538;28;20032;-66
2022/12/29 12:01:53;;;;;;;2.30;0.70;;;;;;;12.80;100.00;98238.78;5045967;28;20025;-66
2022/12/29 12:04:23;;;;;;;2.67;0.90;;;;;;;12.79;100.00;98237.97;5024067;28;20043;-66
2022/12/29 12:07:12;;;;;;;1.50;0.90;;;;;;;12.80;100.00;98236.06;5033877;28;20020;-66
2022/12/29 12:10:01;;;;;;;3.75;0.60;;;;;;;12.84;100.00;98240.81;5037092;28;20069;-66
2022/12/29 12:12:34;;;;;;;;;;;;;;;12.81;100.00;98251.28;5021960;28;20041;-65
2022/12/29 12:15:02;;;;;;;2.45;0.70;;;;;;;12.89;100.00;98237.38;5043678;28;19963;-65
2022/12/29 12:17:53;;;;;;;2.13;0.65;;;;;;;12.90;100.00;98234.44;5037487;28;20075;-65